sensor_id;sensor_type;location;lat;lon;timestamp;pressure;altitude;pressure_sealevel;temperature;humidity
69524;BME280;56723;42.694;23.286;2023-04-07T00:46:40;94784.59;;;1.30;55.11
69524;BME280;56723;42.694;23.286;2023-04-07T00:49:07;94781.34;;;1.28;54.83
69524;BME280;56723;42.694;23.286;2023-04-07T00:51:36;94789.13;;;1.37;54.94
69524;BME280;56723;42.694;23.286;2023-04-07T00:54:04;94782.88;;;1.42;54.59
69524;BME280;56723;42.694;23.286;2023-04-07T00:56:32;94791.09;;;1.45;54.23
69524;BME280;56723;42.694;23.286;2023-04-07T00:58:59;94787.50;;;1.48;54.16
69524;BME280;56723;42.694;23.286;2023-04-07T01:01:35;94784.97;;;1.48;54.25
69524;BME280;56723;42.694;23.286;2023-04-07T03:31:15;94750.69;;;1.84;49.27
69524;BME280;56723;42.694;23.286;2023-04-07T03:33:44;94750.56;;;1.85;49.43
69524;BME280;56723;42.694;23.286;2023-04-07T03:36:11;94750.41;;;1.87;49.62
69524;BME280;56723;42.694;23.286;2023-04-07T03:38:39;94762.53;;;1.85;49.80
69524;BME280;56723;42.694;23.286;2023-04-07T03:41:06;94756.59;;;1.84;49.66
69524;BME280;56723;42.694;23.286;2023-04-07T03:43:33;94747.44;;;1.82;49.75
69524;BME280;56723;42.694;23.286;2023-04-07T05:07:05;94824.03;;;1.37;69.25
69524;BME280;56723;42.694;23.286;2023-04-07T05:09:32;94829.38;;;1.34;70.07
69524;BME280;56723;42.694;23.286;2023-04-07T05:11:59;94824.03;;;1.37;71.94
69524;BME280;56723;42.694;23.286;2023-04-07T05:14:31;94834.69;;;1.31;71.67
69524;BME280;56723;42.694;23.286;2023-04-07T05:17:03;94832.03;;;1.32;71.98
69524;BME280;56723;42.694;23.286;2023-04-07T05:19:31;94835.19;;;1.36;72.19
69524;BME280;56723;42.694;23.286;2023-04-07T05:22:04;94833.00;;;1.43;71.29
69524;BME280;56723;42.694;23.286;2023-04-07T05:24:39;94818.00;;;1.49;73.66
69524;BME280;56723;42.694;23.286;2023-04-07T05:27:06;94827.06;;;1.53;71.40
69524;BME280;56723;42.694;23.286;2023-04-07T05:29:34;94826.72;;;1.58;70.91
69524;BME280;56723;42.694;23.286;2023-04-07T05:32:04;94837.06;;;1.67;70.53
69524;BME280;56723;42.694;23.286;2023-04-07T05:34:31;94831.72;;;1.70;70.39
69524;BME280;56723;42.694;23.286;2023-04-07T05:36:58;94835.09;;;1.71;70.13
69524;BME280;56723;42.694;23.286;2023-04-07T05:39:25;94831.50;;;1.73;69.49
69524;BME280;56723;42.694;23.286;2023-04-07T05:41:55;94837.06;;;1.79;68.93
69524;BME280;56723;42.694;23.286;2023-04-07T05:44:25;94829.88;;;1.84;69.02
69524;BME280;56723;42.694;23.286;2023-04-07T05:46:53;94827.22;;;1.85;69.87
69524;BME280;56723;42.694;23.286;2023-04-07T05:49:22;94835.19;;;1.92;69.78
69524;BME280;56723;42.694;23.286;2023-04-07T05:51:58;94837.41;;;1.96;68.33
69524;BME280;56723;42.694;23.286;2023-04-07T05:54:26;94836.59;;;1.96;67.39
69524;BME280;56723;42.694;23.286;2023-04-07T05:56:53;94838.00;;;2.00;67.77
69524;BME280;56723;42.694;23.286;2023-04-07T05:59:21;94839.13;;;2.07;67.10
69524;BME280;56723;42.694;23.286;2023-04-07T06:01:50;94832.16;;;2.09;66.73
69524;BME280;56723;42.694;23.286;2023-04-07T06:04:18;94834.00;;;2.18;66.22
69524;BME280;56723;42.694;23.286;2023-04-07T06:06:48;94822.63;;;2.22;65.93
69524;BME280;56723;42.694;23.286;2023-04-07T06:09:17;94828.28;;;2.37;64.79
69524;BME280;56723;42.694;23.286;2023-04-07T06:11:44;94823.28;;;2.35;65.24
69524;BME280;56723;42.694;23.286;2023-04-07T06:14:14;94831.59;;;2.49;65.34
69524;BME280;56723;42.694;23.286;2023-04-07T06:16:41;94835.38;;;2.65;55.02
69524;BME280;56723;42.694;23.286;2023-04-07T06:19:08;94828.44;;;2.88;49.87
69524;BME280;56723;42.694;23.286;2023-04-07T06:21:35;94815.34;;;3.02;47.42
69524;BME280;56723;42.694;23.286;2023-04-07T06:24:04;94820.34;;;3.25;46.76
69524;BME280;56723;42.694;23.286;2023-04-07T06:26:33;94823.94;;;3.43;46.33
69524;BME280;56723;42.694;23.286;2023-04-07T06:29:00;94820.44;;;3.65;44.81
69524;BME280;56723;42.694;23.286;2023-04-07T06:31:28;94823.69;;;3.76;43.63
69524;BME280;56723;42.694;23.286;2023-04-07T06:33:55;94817.47;;;3.69;43.80
69524;BME280;56723;42.694;23.286;2023-04-07T06:36:22;94824.47;;;3.98;43.46
69524;BME280;56723;42.694;23.286;2023-04-07T06:38:52;94820.00;;;4.00;42.84
69524;BME280;56723;42.694;23.286;2023-04-07T06:41:19;94822.09;;;4.15;43.52
69524;BME280;56723;42.694;23.286;2023-04-07T06:43:47;94819.13;;;4.20;42.64
69524;BME280;56723;42.694;23.286;2023-04-07T06:46:15;94824.56;;;4.27;42.70
69524;BME280;56723;42.694;23.286;2023-04-07T06:48:42;94817.38;;;4.30;42.52
69524;BME280;56723;42.694;23.286;2023-04-07T06:51:09;94814.72;;;4.41;42.34
69524;BME280;56723;42.694;23.286;2023-04-07T06:53:37;94825.00;;;4.61;42.37
69524;BME280;56723;42.694;23.286;2023-04-07T06:56:08;94825.94;;;4.40;41.73
69524;BME280;56723;42.694;23.286;2023-04-07T06:58:36;94829.19;;;4.52;42.18
69524;BME280;56723;42.694;23.286;2023-04-07T07:01:04;94823.63;;;4.37;42.17
69524;BME280;56723;42.694;23.286;2023-04-07T07:03:32;94827.69;;;4.40;42.18
69524;BME280;56723;42.694;23.286;2023-04-07T07:06:00;94825.50;;;4.35;42.62
69524;BME280;56723;42.694;23.286;2023-04-07T07:08:28;94820.66;;;4.42;42.66
69524;BME280;56723;42.694;23.286;2023-04-07T07:10:55;94841.72;;;4.45;42.17
69524;BME280;56723;42.694;23.286;2023-04-07T07:13:24;94833.38;;;4.43;41.92
69524;BME280;56723;42.694;23.286;2023-04-07T07:15:54;94839.03;;;4.47;41.60
69524;BME280;56723;42.694;23.286;2023-04-07T07:18:21;94840.28;;;4.62;41.95
69524;BME280;56723;42.694;23.286;2023-04-07T07:20:48;94833.66;;;4.60;41.29
69524;BME280;56723;42.694;23.286;2023-04-07T07:23:16;94829.03;;;4.53;42.07
69524;BME280;56723;42.694;23.286;2023-04-07T07:25:43;94835.28;;;4.61;41.63
69524;BME280;56723;42.694;23.286;2023-04-07T07:28:10;94841.75;;;4.65;41.75
69524;BME280;56723;42.694;23.286;2023-04-07T07:30:38;94852.28;;;4.62;41.88
69524;BME280;56723;42.694;23.286;2023-04-07T07:33:06;94859.56;;;4.57;41.85
69524;BME280;56723;42.694;23.286;2023-04-07T07:35:34;94845.94;;;4.66;41.91
69524;BME280;56723;42.694;23.286;2023-04-07T07:38:03;94842.16;;;4.60;41.77
69524;BME280;56723;42.694;23.286;2023-04-07T07:40:30;94858.09;;;4.83;41.40
69524;BME280;56723;42.694;23.286;2023-04-07T07:42:57;94854.06;;;4.80;40.58
69524;BME280;56723;42.694;23.286;2023-04-07T07:45:24;94845.13;;;4.84;40.33
69524;BME280;56723;42.694;23.286;2023-04-07T07:47:51;94843.13;;;4.88;40.88
69524;BME280;56723;42.694;23.286;2023-04-07T07:50:19;94847.03;;;5.11;41.06
69524;BME280;56723;42.694;23.286;2023-04-07T07:52:46;94861.09;;;5.27;40.04
69524;BME280;56723;42.694;23.286;2023-04-07T07:55:13;94852.44;;;5.28;39.77
69524;BME280;56723;42.694;23.286;2023-04-07T07:57:40;94853.00;;;5.12;40.20
69524;BME280;56723;42.694;23.286;2023-04-07T08:00:08;94863.53;;;5.18;40.11
69524;BME280;56723;42.694;23.286;2023-04-07T08:02:41;94858.41;;;5.18;39.74
69524;BME280;56723;42.694;23.286;2023-04-07T08:05:08;94845.00;;;5.05;40.19
69524;BME280;56723;42.694;23.286;2023-04-07T08:07:35;94856.09;;;5.15;39.95
69524;BME280;56723;42.694;23.286;2023-04-07T08:10:03;94857.94;;;5.42;39.84
69524;BME280;56723;42.694;23.286;2023-04-07T08:12:31;94850.63;;;5.57;39.51
69524;BME280;56723;42.694;23.286;2023-04-07T08:14:58;94849.47;;;5.79;40.09
69524;BME280;56723;42.694;23.286;2023-04-07T08:17:26;94847.31;;;5.94;39.91
69524;BME280;56723;42.694;23.286;2023-04-07T08:19:53;94851.75;;;6.01;39.27
69524;BME280;56723;42.694;23.286;2023-04-07T08:22:20;94838.47;;;6.06;39.12
69524;BME280;56723;42.694;23.286;2023-04-07T08:24:48;94847.25;;;6.03;39.03
69524;BME280;56723;42.694;23.286;2023-04-07T08:27:15;94853.75;;;6.07;38.87
69524;BME280;56723;42.694;23.286;2023-04-07T08:29:42;94853.75;;;6.07;39.42
69524;BME280;56723;42.694;23.286;2023-04-07T08:32:09;94851.63;;;5.83;38.89
69524;BME280;56723;42.694;23.286;2023-04-07T08:34:37;94856.16;;;5.72;39.44
69524;BME280;56723;42.694;23.286;2023-04-07T08:37:04;94859.53;;;5.63;39.43
69524;BME280;56723;42.694;23.286;2023-04-07T08:39:31;94850.44;;;5.78;39.42
69524;BME280;56723;42.694;23.286;2023-04-07T08:41:58;94851.94;;;5.90;39.39
69524;BME280;56723;42.694;23.286;2023-04-07T08:44:26;94847.22;;;6.13;38.62
69524;BME280;56723;42.694;23.286;2023-04-07T08:46:55;94858.06;;;6.44;38.43
69524;BME280;56723;42.694;23.286;2023-04-07T08:49:26;94854.38;;;6.19;38.33
69524;BME280;56723;42.694;23.286;2023-04-07T08:51:55;94853.41;;;6.20;38.27
69524;BME280;56723;42.694;23.286;2023-04-07T08:54:24;94837.78;;;6.04;38.28
69524;BME280;56723;42.694;23.286;2023-04-07T08:56:53;94860.53;;;5.99;38.54
69524;BME280;56723;42.694;23.286;2023-04-07T08:59:20;94862.84;;;6.02;38.99
69524;BME280;56723;42.694;23.286;2023-04-07T09:01:53;94860.47;;;6.18;38.23
69524;BME280;56723;42.694;23.286;2023-04-07T09:04:21;94863.28;;;6.24;38.38
69524;BME280;56723;42.694;23.286;2023-04-07T09:06:50;94851.19;;;6.35;38.31
69524;BME280;56723;42.694;23.286;2023-04-07T09:09:17;94848.94;;;6.49;38.08
69524;BME280;56723;42.694;23.286;2023-04-07T09:11:44;94847.81;;;6.52;38.21
69524;BME280;56723;42.694;23.286;2023-04-07T09:14:11;94845.88;;;6.64;38.24
69524;BME280;56723;42.694;23.286;2023-04-07T09:16:38;94850.28;;;6.89;37.50
69524;BME280;56723;42.694;23.286;2023-04-07T09:19:06;94852.22;;;7.22;37.37
69524;BME280;56723;42.694;23.286;2023-04-07T09:21:50;94852.84;;;7.42;36.73
69524;BME280;56723;42.694;23.286;2023-04-07T09:24:24;94857.06;;;7.25;36.15
69524;BME280;56723;42.694;23.286;2023-04-07T09:27:08;94849.34;;;7.08;36.96
69524;BME280;56723;42.694;23.286;2023-04-07T09:29:37;94847.28;;;7.11;36.76
69524;BME280;56723;42.694;23.286;2023-04-07T09:32:04;94855.25;;;7.18;36.86
69524;BME280;56723;42.694;23.286;2023-04-07T09:34:33;94859.06;;;7.14;36.29
69524;BME280;56723;42.694;23.286;2023-04-07T09:37:01;94858.13;;;6.97;36.94
69524;BME280;56723;42.694;23.286;2023-04-07T09:39:28;94871.22;;;6.86;37.53
69524;BME280;56723;42.694;23.286;2023-04-07T09:41:56;94866.41;;;6.91;37.66
69524;BME280;56723;42.694;23.286;2023-04-07T09:44:24;94867.03;;;7.03;37.50
69524;BME280;56723;42.694;23.286;2023-04-07T09:49:20;94865.47;;;6.92;37.56
69524;BME280;56723;42.694;23.286;2023-04-07T09:52:01;94860.16;;;7.11;37.77
69524;BME280;56723;42.694;23.286;2023-04-07T09:54:37;94874.47;;;7.23;37.62
69524;BME280;56723;42.694;23.286;2023-04-07T09:57:06;94870.97;;;7.33;37.85
69524;BME280;56723;42.694;23.286;2023-04-07T09:59:38;94879.53;;;7.33;37.56
69524;BME280;56723;42.694;23.286;2023-04-07T10:02:08;94867.97;;;7.19;37.33
69524;BME280;56723;42.694;23.286;2023-04-07T10:04:35;94870.84;;;7.16;37.21
69524;BME280;56723;42.694;23.286;2023-04-07T10:07:06;94864.75;;;7.00;38.06
69524;BME280;56723;42.694;23.286;2023-04-07T10:09:33;94867.09;;;7.11;37.64
69524;BME280;56723;42.694;23.286;2023-04-07T10:12:00;94869.22;;;7.15;37.68
69524;BME280;56723;42.694;23.286;2023-04-07T10:14:30;94865.84;;;7.15;37.73
69524;BME280;56723;42.694;23.286;2023-04-07T10:17:02;94870.75;;;7.08;37.69
69524;BME280;56723;42.694;23.286;2023-04-07T10:19:31;94866.50;;;6.99;37.90
69524;BME280;56723;42.694;23.286;2023-04-07T10:22:02;94865.69;;;6.99;37.70
69524;BME280;56723;42.694;23.286;2023-04-07T10:24:54;94857.81;;;7.00;37.96
69524;BME280;56723;42.694;23.286;2023-04-07T10:28:02;94863.84;;;6.91;38.22
69524;BME280;56723;42.694;23.286;2023-04-07T10:30:30;94854.44;;;6.82;38.33
69524;BME280;56723;42.694;23.286;2023-04-07T10:32:58;94859.72;;;6.80;39.14
69524;BME280;56723;42.694;23.286;2023-04-07T10:35:25;94866.41;;;6.73;40.46
69524;BME280;56723;42.694;23.286;2023-04-07T10:40:40;94879.50;;;6.62;40.95
69524;BME280;56723;42.694;23.286;2023-04-07T10:43:09;94878.72;;;6.52;41.25
69524;BME280;56723;42.694;23.286;2023-04-07T10:48:21;94884.66;;;6.52;42.00
69524;BME280;56723;42.694;23.286;2023-04-07T10:53:34;94880.31;;;6.63;41.14
69524;BME280;56723;42.694;23.286;2023-04-07T10:56:01;94877.34;;;6.57;41.78
69524;BME280;56723;42.694;23.286;2023-04-07T10:58:29;94885.97;;;6.66;42.06
69524;BME280;56723;42.694;23.286;2023-04-07T11:03:31;94883.88;;;6.97;41.98
69524;BME280;56723;42.694;23.286;2023-04-07T11:06:11;94886.59;;;7.13;40.83
69524;BME280;56723;42.694;23.286;2023-04-07T11:08:40;94893.66;;;7.11;40.51
69524;BME280;56723;42.694;23.286;2023-04-07T11:11:08;94895.56;;;7.09;40.92
69524;BME280;56723;42.694;23.286;2023-04-07T11:16:08;94896.97;;;7.04;41.29
69524;BME280;56723;42.694;23.286;2023-04-07T11:18:37;94885.78;;;6.95;41.65
69524;BME280;56723;42.694;23.286;2023-04-07T11:21:05;94889.59;;;6.91;42.89
69524;BME280;56723;42.694;23.286;2023-04-07T11:23:44;94880.47;;;6.79;42.36
69524;BME280;56723;42.694;23.286;2023-04-07T11:26:13;94882.81;;;6.90;41.99
69524;BME280;56723;42.694;23.286;2023-04-07T11:28:47;94890.56;;;6.90;42.24
69524;BME280;56723;42.694;23.286;2023-04-07T11:34:00;94889.03;;;6.97;41.73
69524;BME280;56723;42.694;23.286;2023-04-07T11:36:30;94897.19;;;6.92;42.01
69524;BME280;56723;42.694;23.286;2023-04-07T11:38:59;94895.22;;;7.04;42.19
69524;BME280;56723;42.694;23.286;2023-04-07T11:41:28;94893.59;;;7.03;41.90
69524;BME280;56723;42.694;23.286;2023-04-07T11:44:22;94898.66;;;6.95;42.77
69524;BME280;56723;42.694;23.286;2023-04-07T11:46:56;94897.41;;;6.81;43.73
69524;BME280;56723;42.694;23.286;2023-04-07T11:49:26;94882.91;;;6.80;44.19
69524;BME280;56723;42.694;23.286;2023-04-07T11:52:01;94897.59;;;6.88;44.13
69524;BME280;56723;42.694;23.286;2023-04-07T11:54:58;94902.94;;;6.86;44.33
69524;BME280;56723;42.694;23.286;2023-04-07T11:57:27;94903.81;;;6.95;44.42
69524;BME280;56723;42.694;23.286;2023-04-07T12:00:08;94899.59;;;6.94;43.64
69524;BME280;56723;42.694;23.286;2023-04-07T12:02:35;94896.97;;;6.86;43.12
69524;BME280;56723;42.694;23.286;2023-04-07T12:05:03;94892.03;;;6.92;43.12
69524;BME280;56723;42.694;23.286;2023-04-07T12:07:31;94887.78;;;7.01;42.82
69524;BME280;56723;42.694;23.286;2023-04-07T12:10:17;94896.31;;;7.19;42.88
69524;BME280;56723;42.694;23.286;2023-04-07T12:12:45;94887.03;;;7.26;42.82
69524;BME280;56723;42.694;23.286;2023-04-07T12:15:12;94880.56;;;7.40;41.92
69524;BME280;56723;42.694;23.286;2023-04-07T12:17:44;94887.91;;;7.35;41.57
69524;BME280;56723;42.694;23.286;2023-04-07T12:20:15;94881.00;;;7.36;42.58
69524;BME280;56723;42.694;23.286;2023-04-07T12:22:42;94895.41;;;7.28;43.33
69524;BME280;56723;42.694;23.286;2023-04-07T12:25:09;94892.69;;;7.30;42.12
69524;BME280;56723;42.694;23.286;2023-04-07T12:27:36;94892.19;;;7.26;42.42
69524;BME280;56723;42.694;23.286;2023-04-07T12:30:09;94884.97;;;7.30;42.60
69524;BME280;56723;42.694;23.286;2023-04-07T12:32:37;94881.56;;;7.47;41.88
69524;BME280;56723;42.694;23.286;2023-04-07T12:35:04;94882.88;;;7.51;42.21
69524;BME280;56723;42.694;23.286;2023-04-07T12:37:32;94890.66;;;7.77;41.49
69524;BME280;56723;42.694;23.286;2023-04-07T12:39:59;94888.19;;;7.93;40.91
69524;BME280;56723;42.694;23.286;2023-04-07T12:42:29;94881.41;;;7.92;40.85
69524;BME280;56723;42.694;23.286;2023-04-07T12:44:56;94882.72;;;7.96;40.75
69524;BME280;56723;42.694;23.286;2023-04-07T12:47:23;94871.25;;;7.99;41.51
69524;BME280;56723;42.694;23.286;2023-04-07T12:49:50;94879.88;;;8.08;41.34
69524;BME280;56723;42.694;23.286;2023-04-07T12:52:17;94873.69;;;8.00;41.25
69524;BME280;56723;42.694;23.286;2023-04-07T12:54:44;94879.28;;;8.14;40.78
69524;BME280;56723;42.694;23.286;2023-04-07T12:57:11;94889.50;;;7.97;41.36
69524;BME280;56723;42.694;23.286;2023-04-07T12:59:38;94890.47;;;7.96;41.87
69524;BME280;56723;42.694;23.286;2023-04-07T13:02:05;94888.25;;;7.84;41.54
69524;BME280;56723;42.694;23.286;2023-04-07T13:04:33;94894.72;;;7.62;42.37
69524;BME280;56723;42.694;23.286;2023-04-07T13:07:02;94895.34;;;7.56;42.72
69524;BME280;56723;42.694;23.286;2023-04-07T13:09:29;94896.66;;;7.60;42.95
69524;BME280;56723;42.694;23.286;2023-04-07T13:11:56;94897.13;;;7.38;42.76
69524;BME280;56723;42.694;23.286;2023-04-07T13:14:23;94898.09;;;7.37;42.93
69524;BME280;56723;42.694;23.286;2023-04-07T13:16:50;94903.59;;;7.42;43.39
69524;BME280;56723;42.694;23.286;2023-04-07T13:19:17;94902.56;;;7.35;42.83
69524;BME280;56723;42.694;23.286;2023-04-07T13:21:44;94899.72;;;7.20;43.33
69524;BME280;56723;42.694;23.286;2023-04-07T13:24:13;94905.38;;;7.23;43.99
69524;BME280;56723;42.694;23.286;2023-04-07T13:26:40;94905.81;;;7.19;44.27
69524;BME280;56723;42.694;23.286;2023-04-07T13:29:08;94900.06;;;7.07;43.76
69524;BME280;56723;42.694;23.286;2023-04-07T13:31:35;94914.22;;;7.03;44.37
69524;BME280;56723;42.694;23.286;2023-04-07T13:34:02;94901.75;;;6.99;44.50
69524;BME280;56723;42.694;23.286;2023-04-07T13:36:29;94910.69;;;7.04;44.28
69524;BME280;56723;42.694;23.286;2023-04-07T13:38:56;94914.94;;;7.13;44.18
69524;BME280;56723;42.694;23.286;2023-04-07T13:41:23;94913.31;;;7.12;43.57
69524;BME280;56723;42.694;23.286;2023-04-07T13:43:50;94911.53;;;6.95;44.27
69524;BME280;56723;42.694;23.286;2023-04-07T13:46:17;94920.22;;;6.94;44.62
69524;BME280;56723;42.694;23.286;2023-04-07T13:48:47;94916.97;;;6.92;44.85
69524;BME280;56723;42.694;23.286;2023-04-07T13:51:15;94933.84;;;6.86;45.42
69524;BME280;56723;42.694;23.286;2023-04-07T13:53:42;94924.13;;;6.71;45.77
69524;BME280;56723;42.694;23.286;2023-04-07T13:56:09;94933.41;;;6.64;46.50
69524;BME280;56723;42.694;23.286;2023-04-07T13:58:36;94922.78;;;6.49;46.80
69524;BME280;56723;42.694;23.286;2023-04-07T14:01:03;94926.25;;;6.57;47.51
69524;BME280;56723;42.694;23.286;2023-04-07T14:03:31;94944.75;;;6.71;47.19
69524;BME280;56723;42.694;23.286;2023-04-07T14:05:58;94938.09;;;6.68;47.37
69524;BME280;56723;42.694;23.286;2023-04-07T14:08:27;94947.72;;;6.76;47.38
69524;BME280;56723;42.694;23.286;2023-04-07T14:10:55;94943.22;;;6.78;47.33
69524;BME280;56723;42.694;23.286;2023-04-07T14:13:22;94956.38;;;6.75;47.50
69524;BME280;56723;42.694;23.286;2023-04-07T14:15:50;94950.94;;;6.50;49.17
69524;BME280;56723;42.694;23.286;2023-04-07T14:18:20;94953.03;;;6.37;49.49
69524;BME280;56723;42.694;23.286;2023-04-07T14:20:50;94962.34;;;6.48;49.97
69524;BME280;56723;42.694;23.286;2023-04-07T14:23:16;94963.53;;;6.53;48.76
69524;BME280;56723;42.694;23.286;2023-04-07T14:26:00;94964.66;;;6.41;48.99
69524;BME280;56723;42.694;23.286;2023-04-07T14:28:27;94964.03;;;6.30;49.97
69524;BME280;56723;42.694;23.286;2023-04-07T14:30:54;94962.84;;;6.14;51.28
69524;BME280;56723;42.694;23.286;2023-04-07T14:33:21;94974.34;;;6.20;51.29
69524;BME280;56723;42.694;23.286;2023-04-07T14:35:50;94967.16;;;6.14;51.54
69524;BME280;56723;42.694;23.286;2023-04-07T14:38:18;94969.59;;;6.15;51.86
69524;BME280;56723;42.694;23.286;2023-04-07T14:40:50;94972.97;;;6.25;51.89
69524;BME280;56723;42.694;23.286;2023-04-07T14:43:18;94966.22;;;6.24;51.95
69524;BME280;56723;42.694;23.286;2023-04-07T14:45:45;94964.84;;;6.30;51.77
69524;BME280;56723;42.694;23.286;2023-04-07T14:48:12;94971.59;;;6.31;51.52
69524;BME280;56723;42.694;23.286;2023-04-07T14:50:40;94973.94;;;6.15;52.57
69524;BME280;56723;42.694;23.286;2023-04-07T14:53:07;94978.31;;;6.05;54.04
69524;BME280;56723;42.694;23.286;2023-04-07T14:55:34;94976.41;;;6.07;54.34
69524;BME280;56723;42.694;23.286;2023-04-07T14:58:02;94978.84;;;6.08;55.09
69524;BME280;56723;42.694;23.286;2023-04-07T15:00:29;94985.34;;;6.03;55.73
69524;BME280;56723;42.694;23.286;2023-04-07T15:02:55;94991.72;;;5.99;56.70
69524;BME280;56723;42.694;23.286;2023-04-07T15:05:23;94992.38;;;6.01;56.63
69524;BME280;56723;42.694;23.286;2023-04-07T15:07:51;94992.38;;;6.01;55.92
69524;BME280;56723;42.694;23.286;2023-04-07T15:10:19;94995.09;;;5.99;55.88
69524;BME280;56723;42.694;23.286;2023-04-07T15:12:47;94999.56;;;5.87;56.14
69524;BME280;56723;42.694;23.286;2023-04-07T15:15:16;94997.78;;;5.88;56.54
69524;BME280;56723;42.694;23.286;2023-04-07T15:17:43;94982.91;;;5.82;57.46
69524;BME280;56723;42.694;23.286;2023-04-07T15:20:11;94988.22;;;5.90;57.11
69524;BME280;56723;42.694;23.286;2023-04-07T15:22:39;94993.59;;;5.87;57.94
69524;BME280;56723;42.694;23.286;2023-04-07T15:25:06;94999.41;;;5.79;58.06
69524;BME280;56723;42.694;23.286;2023-04-07T15:27:34;94999.69;;;5.76;58.27
69524;BME280;56723;42.694;23.286;2023-04-07T15:30:01;94999.97;;;5.73;58.31
69524;BME280;56723;42.694;23.286;2023-04-07T15:32:32;95003.63;;;5.71;58.51
69524;BME280;56723;42.694;23.286;2023-04-07T15:34:59;95009.72;;;5.70;58.69
69524;BME280;56723;42.694;23.286;2023-04-07T15:37:26;95000.34;;;5.59;59.37
69524;BME280;56723;42.694;23.286;2023-04-07T15:39:53;95013.22;;;5.59;59.13
69524;BME280;56723;42.694;23.286;2023-04-07T15:42:20;95010.25;;;5.54;59.54
69524;BME280;56723;42.694;23.286;2023-04-07T15:44:47;95015.41;;;5.54;59.55
69524;BME280;56723;42.694;23.286;2023-04-07T15:47:14;95004.31;;;5.53;60.01
69524;BME280;56723;42.694;23.286;2023-04-07T15:49:41;95011.31;;;5.51;58.82
69524;BME280;56723;42.694;23.286;2023-04-07T15:52:08;95004.97;;;5.46;59.12
69524;BME280;56723;42.694;23.286;2023-04-07T15:54:37;95017.53;;;5.49;59.22
69524;BME280;56723;42.694;23.286;2023-04-07T15:57:04;95019.69;;;5.34;59.81
69524;BME280;56723;42.694;23.286;2023-04-07T15:59:31;95017.00;;;5.36;60.26
69524;BME280;56723;42.694;23.286;2023-04-07T16:01:58;95022.13;;;5.36;60.47
69524;BME280;56723;42.694;23.286;2023-04-07T16:04:26;95027.66;;;5.31;60.62
69524;BME280;56723;42.694;23.286;2023-04-07T16:06:53;95024.28;;;5.31;60.83
69524;BME280;56723;42.694;23.286;2023-04-07T16:09:20;95011.69;;;5.18;60.72
69524;BME280;56723;42.694;23.286;2023-04-07T16:11:47;95029.81;;;5.26;60.61
69524;BME280;56723;42.694;23.286;2023-04-07T16:14:15;95035.22;;;5.23;60.47
69524;BME280;56723;42.694;23.286;2023-04-07T16:16:42;95038.59;;;5.23;60.68
69524;BME280;56723;42.694;23.286;2023-04-07T16:19:10;95046.72;;;5.19;60.23
69524;BME280;56723;42.694;23.286;2023-04-07T16:21:37;95049.41;;;5.17;59.93
69524;BME280;56723;42.694;23.286;2023-04-07T16:24:05;95045.59;;;5.12;60.42
69524;BME280;56723;42.694;23.286;2023-04-07T16:26:32;95040.47;;;5.12;60.36
69524;BME280;56723;42.694;23.286;2023-04-07T16:28:59;95057.50;;;5.13;60.49
69524;BME280;56723;42.694;23.286;2023-04-07T16:31:26;95051.81;;;5.09;60.49
69524;BME280;56723;42.694;23.286;2023-04-07T16:33:53;95055.19;;;5.10;60.78
69524;BME280;56723;42.694;23.286;2023-04-07T16:36:20;95046.69;;;5.09;60.21
69524;BME280;56723;42.694;23.286;2023-04-07T16:38:47;95054.38;;;5.09;59.93
69524;BME280;56723;42.694;23.286;2023-04-07T16:41:16;95058.56;;;5.10;60.68
69524;BME280;56723;42.694;23.286;2023-04-07T16:43:43;95073.72;;;5.13;60.49
69524;BME280;56723;42.694;23.286;2023-04-07T16:46:10;95066.03;;;5.13;60.47
69524;BME280;56723;42.694;23.286;2023-04-07T16:48:37;95067.91;;;5.11;60.16
69524;BME280;56723;42.694;23.286;2023-04-07T16:51:05;95078.06;;;5.13;59.71
69524;BME280;56723;42.694;23.286;2023-04-07T16:53:32;95078.19;;;5.11;59.92
69524;BME280;56723;42.694;23.286;2023-04-07T16:55:58;95076.13;;;5.05;60.44
69524;BME280;56723;42.694;23.286;2023-04-07T16:58:25;95068.97;;;4.99;60.48
69524;BME280;56723;42.694;23.286;2023-04-07T17:00:52;95069.91;;;4.98;60.71
69524;BME280;56723;42.694;23.286;2023-04-07T17:03:19;95076.66;;;4.99;60.99
69524;BME280;56723;42.694;23.286;2023-04-07T17:05:47;95082.63;;;5.00;60.88
69524;BME280;56723;42.694;23.286;2023-04-07T17:08:15;95080.84;;;5.00;61.27
69524;BME280;56723;42.694;23.286;2023-04-07T17:10:42;95089.22;;;5.02;61.34
69524;BME280;56723;42.694;23.286;2023-04-07T17:13:09;95086.66;;;5.02;61.21
69524;BME280;56723;42.694;23.286;2023-04-07T17:15:36;95097.88;;;5.01;61.55
69524;BME280;56723;42.694;23.286;2023-04-07T17:18:06;95094.22;;;5.04;61.20
69524;BME280;56723;42.694;23.286;2023-04-07T17:20:33;95101.56;;;5.08;60.85
69524;BME280;56723;42.694;23.286;2023-04-07T17:23:00;95096.66;;;5.05;61.33
69524;BME280;56723;42.694;23.286;2023-04-07T17:25:27;95100.06;;;5.06;60.87
69524;BME280;56723;42.694;23.286;2023-04-07T17:27:54;95105.88;;;5.08;60.81
69524;BME280;56723;42.694;23.286;2023-04-07T17:30:21;95100.19;;;5.04;60.36
69524;BME280;56723;42.694;23.286;2023-04-07T17:32:48;95104.78;;;5.01;60.78
69524;BME280;56723;42.694;23.286;2023-04-07T17:35:19;95096.22;;;4.91;60.48
69524;BME280;56723;42.694;23.286;2023-04-07T17:37:46;95112.63;;;4.99;60.82
69524;BME280;56723;42.694;23.286;2023-04-07T17:40:22;95113.28;;;5.01;60.52
69524;BME280;56723;42.694;23.286;2023-04-07T17:42:49;95115.56;;;4.95;61.49
69524;BME280;56723;42.694;23.286;2023-04-07T17:45:16;95120.81;;;4.93;61.36
69524;BME280;56723;42.694;23.286;2023-04-07T17:47:43;95129.22;;;4.95;61.75
69524;BME280;56723;42.694;23.286;2023-04-07T17:50:11;95130.41;;;4.91;62.22
69524;BME280;56723;42.694;23.286;2023-04-07T17:52:39;95129.47;;;4.92;62.39
69524;BME280;56723;42.694;23.286;2023-04-07T17:55:06;95128.78;;;4.90;62.13
69524;BME280;56723;42.694;23.286;2023-04-07T17:57:34;95137.16;;;4.92;61.78
69524;BME280;56723;42.694;23.286;2023-04-07T18:00:03;95145.81;;;4.91;62.02